sensor_id;sensor_type;location;lat;lon;timestamp;P1;durP1;ratioP1;P2;durP2;ratioP2
27889;SDS011;15238;49.082;9.102;2022-07-23T00:01:08;6.05;;;5.45;;
27889;SDS011;15238;49.082;9.102;2022-07-23T00:03:09;6.80;;;5.32;;
27889;SDS011;15238;49.082;9.102;2022-07-23T00:05:09;6.35;;;4.72;;
27889;SDS011;15238;49.082;9.102;2022-07-23T00:07:10;8.05;;;5.10;;
27889;SDS011;15238;49.082;9.102;2022-07-23T00:09:11;6.72;;;5.15;;
27889;SDS011;15238;49.082;9.102;2022-07-23T00:11:11;7.28;;;5.35;;
27889;SDS011;15238;49.082;9.102;2022-07-23T00:13:12;5.85;;;4.78;;
27889;SDS011;15238;49.082;9.102;2022-07-23T00:15:12;6.45;;;4.72;;
27889;SDS011;15238;49.082;9.102;2022-07-23T00:17:13;7.68;;;4.53;;
27889;SDS011;15238;49.082;9.102;2022-07-23T00:19:13;7.47;;;5.20;;
27889;SDS011;15238;49.082;9.102;2022-07-23T00:21:14;8.30;;;4.55;;
27889;SDS011;15238;49.082;9.102;2022-07-23T00:23:14;6.25;;;4.55;;
27889;SDS011;15238;49.082;9.102;2022-07-23T00:25:15;6.30;;;4.57;;
27889;SDS011;15238;49.082;9.102;2022-07-23T00:27:16;6.03;;;4.40;;
27889;SDS011;15238;49.082;9.102;2022-07-23T00:29:16;6.68;;;4.68;;
27889;SDS011;15238;49.082;9.102;2022-07-23T00:31:17;6.53;;;4.70;;
27889;SDS011;15238;49.082;9.102;2022-07-23T00:33:17;6.00;;;5.05;;
27889;SDS011;15238;49.082;9.102;2022-07-23T00:35:21;6.05;;;4.55;;
27889;SDS011;15238;49.082;9.102;2022-07-23T00:37:23;9.70;;;5.40;;
27889;SDS011;15238;49.082;9.102;2022-07-23T00:39:23;5.72;;;4.60;;
27889;SDS011;15238;49.082;9.102;2022-07-23T00:41:24;5.35;;;4.85;;
27889;SDS011;15238;49.082;9.102;2022-07-23T00:43:25;8.13;;;4.63;;
27889;SDS011;15238;49.082;9.102;2022-07-23T00:45:25;5.57;;;4.90;;
27889;SDS011;15238;49.082;9.102;2022-07-23T00:47:26;6.35;;;5.32;;
27889;SDS011;15238;49.082;9.102;2022-07-23T00:49:27;7.20;;;5.13;;
27889;SDS011;15238;49.082;9.102;2022-07-23T00:51:29;9.65;;;5.30;;
27889;SDS011;15238;49.082;9.102;2022-07-23T00:53:29;5.63;;;4.88;;
27889;SDS011;15238;49.082;9.102;2022-07-23T00:55:31;8.27;;;5.00;;
27889;SDS011;15238;49.082;9.102;2022-07-23T00:57:32;6.43;;;4.90;;
27889;SDS011;15238;49.082;9.102;2022-07-23T00:59:33;9.75;;;4.88;;
27889;SDS011;15238;49.082;9.102;2022-07-23T01:01:34;6.65;;;4.82;;
27889;SDS011;15238;49.082;9.102;2022-07-23T01:03:34;8.05;;;5.07;;
27889;SDS011;15238;49.082;9.102;2022-07-23T01:05:35;6.03;;;5.13;;
27889;SDS011;15238;49.082;9.102;2022-07-23T01:07:36;6.68;;;4.53;;
27889;SDS011;15238;49.082;9.102;2022-07-23T01:09:37;6.47;;;4.75;;
27889;SDS011;15238;49.082;9.102;2022-07-23T01:11:38;5.55;;;4.68;;
27889;SDS011;15238;49.082;9.102;2022-07-23T01:13:42;7.47;;;5.20;;
27889;SDS011;15238;49.082;9.102;2022-07-23T01:15:43;6.05;;;4.72;;
27889;SDS011;15238;49.082;9.102;2022-07-23T01:17:43;5.70;;;4.78;;
27889;SDS011;15238;49.082;9.102;2022-07-23T01:19:44;7.47;;;5.07;;
27889;SDS011;15238;49.082;9.102;2022-07-23T01:21:46;6.25;;;4.88;;
27889;SDS011;15238;49.082;9.102;2022-07-23T01:23:48;6.85;;;4.95;;
27889;SDS011;15238;49.082;9.102;2022-07-23T01:25:49;6.13;;;4.80;;
27889;SDS011;15238;49.082;9.102;2022-07-23T01:27:52;4.88;;;4.22;;
27889;SDS011;15238;49.082;9.102;2022-07-23T01:29:54;6.55;;;4.90;;
27889;SDS011;15238;49.082;9.102;2022-07-23T01:31:56;7.53;;;4.97;;
27889;SDS011;15238;49.082;9.102;2022-07-23T01:33:57;6.88;;;4.50;;
27889;SDS011;15238;49.082;9.102;2022-07-23T01:35:57;5.72;;;4.68;;
27889;SDS011;15238;49.082;9.102;2022-07-23T01:37:58;4.93;;;4.43;;
27889;SDS011;15238;49.082;9.102;2022-07-23T01:39:58;5.90;;;4.60;;
27889;SDS011;15238;49.082;9.102;2022-07-23T01:41:59;5.55;;;4.45;;
27889;SDS011;15238;49.082;9.102;2022-07-23T01:43:59;5.47;;;4.78;;
27889;SDS011;15238;49.082;9.102;2022-07-23T01:46:00;5.32;;;4.78;;
27889;SDS011;15238;49.082;9.102;2022-07-23T01:48:01;6.32;;;4.70;;
27889;SDS011;15238;49.082;9.102;2022-07-23T01:50:01;5.63;;;5.07;;
27889;SDS011;15238;49.082;9.102;2022-07-23T01:52:02;8.25;;;4.72;;
27889;SDS011;15238;49.082;9.102;2022-07-23T01:54:06;6.60;;;5.43;;
27889;SDS011;15238;49.082;9.102;2022-07-23T01:56:07;4.82;;;4.38;;
27889;SDS011;15238;49.082;9.102;2022-07-23T01:58:07;5.28;;;4.47;;
27889;SDS011;15238;49.082;9.102;2022-07-23T02:00:08;7.90;;;4.82;;
27889;SDS011;15238;49.082;9.102;2022-07-23T02:02:09;7.70;;;4.78;;
27889;SDS011;15238;49.082;9.102;2022-07-23T02:04:10;7.47;;;4.93;;
27889;SDS011;15238;49.082;9.102;2022-07-23T02:06:10;6.10;;;5.38;;
27889;SDS011;15238;49.082;9.102;2022-07-23T02:08:11;9.35;;;5.82;;
27889;SDS011;15238;49.082;9.102;2022-07-23T02:10:11;7.40;;;5.57;;
27889;SDS011;15238;49.082;9.102;2022-07-23T02:12:12;7.45;;;5.43;;
27889;SDS011;15238;49.082;9.102;2022-07-23T02:14:13;8.05;;;5.43;;
27889;SDS011;15238;49.082;9.102;2022-07-23T02:16:13;7.32;;;5.32;;
27889;SDS011;15238;49.082;9.102;2022-07-23T02:18:14;6.65;;;5.10;;
27889;SDS011;15238;49.082;9.102;2022-07-23T02:20:15;7.40;;;5.47;;
27889;SDS011;15238;49.082;9.102;2022-07-23T02:22:15;9.10;;;5.53;;
27889;SDS011;15238;49.082;9.102;2022-07-23T02:24:16;8.07;;;5.68;;
27889;SDS011;15238;49.082;9.102;2022-07-23T02:26:16;9.05;;;5.55;;
27889;SDS011;15238;49.082;9.102;2022-07-23T02:28:17;6.63;;;5.43;;
27889;SDS011;15238;49.082;9.102;2022-07-23T02:30:17;7.85;;;5.45;;
27889;SDS011;15238;49.082;9.102;2022-07-23T02:32:18;6.15;;;5.55;;
27889;SDS011;15238;49.082;9.102;2022-07-23T02:34:18;8.52;;;5.47;;
27889;SDS011;15238;49.082;9.102;2022-07-23T02:36:19;6.68;;;5.95;;
27889;SDS011;15238;49.082;9.102;2022-07-23T02:38:19;11.55;;;5.63;;
27889;SDS011;15238;49.082;9.102;2022-07-23T02:40:20;8.38;;;5.68;;
27889;SDS011;15238;49.082;9.102;2022-07-23T02:42:21;9.95;;;5.85;;
27889;SDS011;15238;49.082;9.102;2022-07-23T02:44:23;10.30;;;5.85;;
27889;SDS011;15238;49.082;9.102;2022-07-23T02:46:24;8.00;;;5.90;;
27889;SDS011;15238;49.082;9.102;2022-07-23T02:48:24;8.77;;;5.80;;
27889;SDS011;15238;49.082;9.102;2022-07-23T02:50:25;9.52;;;5.90;;
27889;SDS011;15238;49.082;9.102;2022-07-23T02:52:25;9.07;;;6.60;;
27889;SDS011;15238;49.082;9.102;2022-07-23T02:54:26;8.07;;;6.10;;
27889;SDS011;15238;49.082;9.102;2022-07-23T02:56:26;9.60;;;5.43;;
27889;SDS011;15238;49.082;9.102;2022-07-23T02:58:27;9.23;;;6.07;;
27889;SDS011;15238;49.082;9.102;2022-07-23T03:00:28;6.93;;;5.93;;
27889;SDS011;15238;49.082;9.102;2022-07-23T03:02:28;9.10;;;6.15;;
27889;SDS011;15238;49.082;9.102;2022-07-23T03:04:29;13.90;;;6.88;;
27889;SDS011;15238;49.082;9.102;2022-07-23T03:06:29;11.90;;;6.20;;
27889;SDS011;15238;49.082;9.102;2022-07-23T03:08:30;14.00;;;6.20;;
27889;SDS011;15238;49.082;9.102;2022-07-23T03:10:30;8.82;;;5.90;;
27889;SDS011;15238;49.082;9.102;2022-07-23T03:12:31;9.23;;;6.00;;
27889;SDS011;15238;49.082;9.102;2022-07-23T03:14:32;7.13;;;5.53;;
27889;SDS011;15238;49.082;9.102;2022-07-23T03:16:32;7.47;;;5.65;;
27889;SDS011;15238;49.082;9.102;2022-07-23T03:18:33;7.30;;;5.97;;
27889;SDS011;15238;49.082;9.102;2022-07-23T03:20:34;9.30;;;6.00;;
27889;SDS011;15238;49.082;9.102;2022-07-23T03:22:34;9.00;;;5.72;;
27889;SDS011;15238;49.082;9.102;2022-07-23T03:24:35;9.13;;;5.28;;
27889;SDS011;15238;49.082;9.102;2022-07-23T03:26:53;8.68;;;6.13;;
27889;SDS011;15238;49.082;9.102;2022-07-23T03:28:54;6.60;;;5.38;;
27889;SDS011;15238;49.082;9.102;2022-07-23T03:30:54;7.70;;;5.53;;
27889;SDS011;15238;49.082;9.102;2022-07-23T03:32:55;6.95;;;5.85;;
27889;SDS011;15238;49.082;9.102;2022-07-23T03:34:55;6.85;;;5.90;;
27889;SDS011;15238;49.082;9.102;2022-07-23T03:36:56;6.65;;;5.95;;
27889;SDS011;15238;49.082;9.102;2022-07-23T03:38:56;7.47;;;5.57;;
27889;SDS011;15238;49.082;9.102;2022-07-23T03:40:57;7.70;;;6.10;;
27889;SDS011;15238;49.082;9.102;2022-07-23T03:42:57;7.85;;;5.90;;
27889;SDS011;15238;49.082;9.102;2022-07-23T03:44:58;8.60;;;6.47;;
27889;SDS011;15238;49.082;9.102;2022-07-23T03:46:58;11.40;;;6.18;;
27889;SDS011;15238;49.082;9.102;2022-07-23T03:48:59;9.60;;;6.53;;
27889;SDS011;15238;49.082;9.102;2022-07-23T03:51:00;9.23;;;6.38;;
27889;SDS011;15238;49.082;9.102;2022-07-23T03:53:00;8.85;;;6.50;;
27889;SDS011;15238;49.082;9.102;2022-07-23T03:55:01;9.45;;;6.70;;
27889;SDS011;15238;49.082;9.102;2022-07-23T03:57:02;7.80;;;6.28;;
27889;SDS011;15238;49.082;9.102;2022-07-23T03:59:03;10.20;;;6.97;;
27889;SDS011;15238;49.082;9.102;2022-07-23T04:01:04;10.10;;;7.07;;
27889;SDS011;15238;49.082;9.102;2022-07-23T04:03:04;12.52;;;7.15;;
27889;SDS011;15238;49.082;9.102;2022-07-23T04:05:05;8.88;;;6.63;;
27889;SDS011;15238;49.082;9.102;2022-07-23T04:07:06;11.35;;;6.60;;
27889;SDS011;15238;49.082;9.102;2022-07-23T04:09:07;9.13;;;6.03;;
27889;SDS011;15238;49.082;9.102;2022-07-23T04:11:08;8.63;;;6.75;;
27889;SDS011;15238;49.082;9.102;2022-07-23T04:13:08;8.27;;;6.30;;
27889;SDS011;15238;49.082;9.102;2022-07-23T04:15:09;14.57;;;6.30;;
27889;SDS011;15238;49.082;9.102;2022-07-23T04:17:10;6.60;;;6.00;;
27889;SDS011;15238;49.082;9.102;2022-07-23T04:19:11;8.45;;;6.38;;
27889;SDS011;15238;49.082;9.102;2022-07-23T04:21:12;9.98;;;6.18;;
27889;SDS011;15238;49.082;9.102;2022-07-23T04:23:12;8.38;;;6.40;;
27889;SDS011;15238;49.082;9.102;2022-07-23T04:25:13;7.93;;;6.88;;
27889;SDS011;15238;49.082;9.102;2022-07-23T04:27:16;8.73;;;6.43;;
27889;SDS011;15238;49.082;9.102;2022-07-23T04:29:17;7.82;;;6.45;;
27889;SDS011;15238;49.082;9.102;2022-07-23T04:31:17;6.55;;;5.85;;
27889;SDS011;15238;49.082;9.102;2022-07-23T04:33:18;11.40;;;6.60;;
27889;SDS011;15238;49.082;9.102;2022-07-23T04:35:19;10.80;;;6.35;;
27889;SDS011;15238;49.082;9.102;2022-07-23T04:37:20;11.10;;;6.68;;
27889;SDS011;15238;49.082;9.102;2022-07-23T04:39:20;7.70;;;6.43;;
27889;SDS011;15238;49.082;9.102;2022-07-23T04:41:21;12.00;;;6.53;;
27889;SDS011;15238;49.082;9.102;2022-07-23T04:43:21;9.30;;;6.30;;
27889;SDS011;15238;49.082;9.102;2022-07-23T04:45:22;10.43;;;6.32;;
27889;SDS011;15238;49.082;9.102;2022-07-23T04:47:25;14.93;;;6.25;;
27889;SDS011;15238;49.082;9.102;2022-07-23T04:49:26;9.05;;;6.85;;
27889;SDS011;15238;49.082;9.102;2022-07-23T04:51:26;9.18;;;6.43;;
27889;SDS011;15238;49.082;9.102;2022-07-23T04:53:29;13.13;;;6.70;;
27889;SDS011;15238;49.082;9.102;2022-07-23T04:55:29;7.85;;;6.50;;
27889;SDS011;15238;49.082;9.102;2022-07-23T04:57:30;10.25;;;6.38;;
27889;SDS011;15238;49.082;9.102;2022-07-23T04:59:31;9.95;;;6.32;;
27889;SDS011;15238;49.082;9.102;2022-07-23T05:01:31;11.05;;;6.47;;
27889;SDS011;15238;49.082;9.102;2022-07-23T05:03:31;8.10;;;6.00;;
27889;SDS011;15238;49.082;9.102;2022-07-23T05:05:32;8.88;;;5.95;;
27889;SDS011;15238;49.082;9.102;2022-07-23T05:07:33;7.60;;;6.50;;
27889;SDS011;15238;49.082;9.102;2022-07-23T05:09:33;10.32;;;6.18;;
27889;SDS011;15238;49.082;9.102;2022-07-23T05:11:34;7.88;;;6.05;;
27889;SDS011;15238;49.082;9.102;2022-07-23T05:13:34;9.45;;;6.50;;
27889;SDS011;15238;49.082;9.102;2022-07-23T05:15:35;8.23;;;6.65;;
27889;SDS011;15238;49.082;9.102;2022-07-23T05:17:35;9.65;;;6.30;;
27889;SDS011;15238;49.082;9.102;2022-07-23T05:19:36;7.00;;;6.22;;
27889;SDS011;15238;49.082;9.102;2022-07-23T05:21:36;9.48;;;6.55;;
27889;SDS011;15238;49.082;9.102;2022-07-23T05:23:37;12.50;;;6.60;;
27889;SDS011;15238;49.082;9.102;2022-07-23T05:25:37;6.45;;;5.63;;
27889;SDS011;15238;49.082;9.102;2022-07-23T05:27:39;7.93;;;6.15;;
27889;SDS011;15238;49.082;9.102;2022-07-23T05:29:39;7.07;;;5.50;;
27889;SDS011;15238;49.082;9.102;2022-07-23T05:31:40;6.80;;;6.10;;
27889;SDS011;15238;49.082;9.102;2022-07-23T05:33:40;5.95;;;5.13;;
27889;SDS011;15238;49.082;9.102;2022-07-23T05:35:41;9.35;;;5.85;;
27889;SDS011;15238;49.082;9.102;2022-07-23T05:37:41;10.32;;;6.18;;
27889;SDS011;15238;49.082;9.102;2022-07-23T05:39:42;8.90;;;5.63;;
27889;SDS011;15238;49.082;9.102;2022-07-23T05:41:42;7.88;;;6.03;;
27889;SDS011;15238;49.082;9.102;2022-07-23T05:43:43;11.80;;;6.43;;
27889;SDS011;15238;49.082;9.102;2022-07-23T05:45:44;8.60;;;6.60;;
27889;SDS011;15238;49.082;9.102;2022-07-23T05:47:49;10.30;;;6.22;;
27889;SDS011;15238;49.082;9.102;2022-07-23T05:49:50;8.18;;;6.15;;
27889;SDS011;15238;49.082;9.102;2022-07-23T05:51:50;9.07;;;6.30;;
27889;SDS011;15238;49.082;9.102;2022-07-23T05:53:51;5.97;;;5.35;;
27889;SDS011;15238;49.082;9.102;2022-07-23T05:55:52;8.85;;;6.10;;
27889;SDS011;15238;49.082;9.102;2022-07-23T05:57:52;12.48;;;6.00;;
27889;SDS011;15238;49.082;9.102;2022-07-23T05:59:53;12.00;;;6.53;;
27889;SDS011;15238;49.082;9.102;2022-07-23T06:01:53;10.20;;;5.95;;
27889;SDS011;15238;49.082;9.102;2022-07-23T06:03:54;10.13;;;7.15;;
27889;SDS011;15238;49.082;9.102;2022-07-23T06:05:54;9.93;;;6.10;;
27889;SDS011;15238;49.082;9.102;2022-07-23T06:07:55;9.00;;;6.32;;
27889;SDS011;15238;49.082;9.102;2022-07-23T06:09:55;9.23;;;6.05;;
27889;SDS011;15238;49.082;9.102;2022-07-23T06:11:56;8.77;;;6.40;;
27889;SDS011;15238;49.082;9.102;2022-07-23T06:13:56;11.27;;;6.85;;
27889;SDS011;15238;49.082;9.102;2022-07-23T06:15:57;7.57;;;6.78;;
27889;SDS011;15238;49.082;9.102;2022-07-23T06:17:57;8.55;;;7.00;;
27889;SDS011;15238;49.082;9.102;2022-07-23T06:19:58;7.45;;;6.50;;
27889;SDS011;15238;49.082;9.102;2022-07-23T06:21:58;12.85;;;6.95;;
27889;SDS011;15238;49.082;9.102;2022-07-23T06:23:59;9.90;;;6.25;;
27889;SDS011;15238;49.082;9.102;2022-07-23T06:25:59;11.18;;;7.03;;
27889;SDS011;15238;49.082;9.102;2022-07-23T06:28:00;8.45;;;7.53;;
27889;SDS011;15238;49.082;9.102;2022-07-23T06:30:00;12.55;;;7.80;;
27889;SDS011;15238;49.082;9.102;2022-07-23T06:32:01;9.32;;;7.68;;
27889;SDS011;15238;49.082;9.102;2022-07-23T06:34:02;10.60;;;7.70;;
27889;SDS011;15238;49.082;9.102;2022-07-23T06:36:03;8.40;;;7.35;;
27889;SDS011;15238;49.082;9.102;2022-07-23T06:38:03;11.27;;;7.90;;
27889;SDS011;15238;49.082;9.102;2022-07-23T06:40:04;10.48;;;7.00;;
27889;SDS011;15238;49.082;9.102;2022-07-23T06:42:05;8.32;;;6.93;;
27889;SDS011;15238;49.082;9.102;2022-07-23T06:44:06;9.35;;;7.47;;
27889;SDS011;15238;49.082;9.102;2022-07-23T06:46:06;10.20;;;7.20;;
27889;SDS011;15238;49.082;9.102;2022-07-23T06:48:07;9.70;;;7.43;;
27889;SDS011;15238;49.082;9.102;2022-07-23T06:50:07;11.48;;;7.57;;
27889;SDS011;15238;49.082;9.102;2022-07-23T06:52:08;14.05;;;7.40;;
27889;SDS011;15238;49.082;9.102;2022-07-23T06:54:09;13.38;;;8.35;;
27889;SDS011;15238;49.082;9.102;2022-07-23T06:56:09;14.25;;;8.90;;
27889;SDS011;15238;49.082;9.102;2022-07-23T06:58:10;8.95;;;7.60;;
27889;SDS011;15238;49.082;9.102;2022-07-23T07:00:11;12.40;;;8.70;;
27889;SDS011;15238;49.082;9.102;2022-07-23T07:02:11;14.45;;;9.43;;
27889;SDS011;15238;49.082;9.102;2022-07-23T07:04:12;17.25;;;10.45;;
27889;SDS011;15238;49.082;9.102;2022-07-23T07:06:13;13.85;;;9.75;;
27889;SDS011;15238;49.082;9.102;2022-07-23T07:08:13;13.30;;;9.68;;
27889;SDS011;15238;49.082;9.102;2022-07-23T07:10:14;16.77;;;9.85;;
27889;SDS011;15238;49.082;9.102;2022-07-23T07:12:16;14.63;;;10.07;;
27889;SDS011;15238;49.082;9.102;2022-07-23T07:14:16;14.48;;;10.48;;
27889;SDS011;15238;49.082;9.102;2022-07-23T07:16:17;15.40;;;10.77;;
27889;SDS011;15238;49.082;9.102;2022-07-23T07:18:18;12.05;;;9.23;;
27889;SDS011;15238;49.082;9.102;2022-07-23T07:20:18;16.35;;;10.18;;
27889;SDS011;15238;49.082;9.102;2022-07-23T07:22:19;12.75;;;9.77;;
27889;SDS011;15238;49.082;9.102;2022-07-23T07:24:19;14.50;;;9.93;;
27889;SDS011;15238;49.082;9.102;2022-07-23T07:26:20;13.23;;;9.93;;
27889;SDS011;15238;49.082;9.102;2022-07-23T07:28:20;12.48;;;10.00;;
27889;SDS011;15238;49.082;9.102;2022-07-23T07:30:21;12.48;;;10.05;;
27889;SDS011;15238;49.082;9.102;2022-07-23T07:32:22;11.98;;;9.40;;
27889;SDS011;15238;49.082;9.102;2022-07-23T07:34:22;12.57;;;9.73;;
27889;SDS011;15238;49.082;9.102;2022-07-23T07:36:23;13.07;;;10.52;;
27889;SDS011;15238;49.082;9.102;2022-07-23T07:38:23;11.63;;;9.40;;
27889;SDS011;15238;49.082;9.102;2022-07-23T07:40:24;11.52;;;9.57;;
27889;SDS011;15238;49.082;9.102;2022-07-23T07:42:25;10.50;;;9.50;;
27889;SDS011;15238;49.082;9.102;2022-07-23T07:44:26;12.93;;;9.77;;
27889;SDS011;15238;49.082;9.102;2022-07-23T07:46:26;11.77;;;9.02;;
27889;SDS011;15238;49.082;9.102;2022-07-23T07:48:27;13.10;;;9.27;;
27889;SDS011;15238;49.082;9.102;2022-07-23T07:50:28;10.55;;;8.02;;
27889;SDS011;15238;49.082;9.102;2022-07-23T07:52:28;11.00;;;8.38;;
27889;SDS011;15238;49.082;9.102;2022-07-23T07:54:29;9.27;;;7.28;;
27889;SDS011;15238;49.082;9.102;2022-07-23T07:56:29;10.05;;;7.47;;
27889;SDS011;15238;49.082;9.102;2022-07-23T07:58:30;8.90;;;7.30;;
27889;SDS011;15238;49.082;9.102;2022-07-23T08:00:30;9.63;;;7.72;;
27889;SDS011;15238;49.082;9.102;2022-07-23T08:02:48;9.65;;;7.45;;
27889;SDS011;15238;49.082;9.102;2022-07-23T08:04:51;9.95;;;7.68;;
27889;SDS011;15238;49.082;9.102;2022-07-23T08:06:52;9.65;;;8.32;;
27889;SDS011;15238;49.082;9.102;2022-07-23T08:08:53;10.60;;;8.85;;
27889;SDS011;15238;49.082;9.102;2022-07-23T08:10:53;11.43;;;9.32;;
27889;SDS011;15238;49.082;9.102;2022-07-23T08:12:54;12.75;;;9.15;;
27889;SDS011;15238;49.082;9.102;2022-07-23T08:14:56;10.20;;;8.32;;
27889;SDS011;15238;49.082;9.102;2022-07-23T08:16:56;10.23;;;9.05;;
27889;SDS011;15238;49.082;9.102;2022-07-23T08:18:57;11.15;;;8.93;;
27889;SDS011;15238;49.082;9.102;2022-07-23T08:20:57;13.80;;;8.98;;
27889;SDS011;15238;49.082;9.102;2022-07-23T08:22:59;15.43;;;9.10;;
27889;SDS011;15238;49.082;9.102;2022-07-23T08:25:03;12.02;;;8.88;;
27889;SDS011;15238;49.082;9.102;2022-07-23T08:27:04;14.07;;;9.60;;
27889;SDS011;15238;49.082;9.102;2022-07-23T08:29:05;9.73;;;8.70;;
27889;SDS011;15238;49.082;9.102;2022-07-23T08:31:05;13.48;;;8.90;;
27889;SDS011;15238;49.082;9.102;2022-07-23T08:33:07;9.85;;;8.48;;
27889;SDS011;15238;49.082;9.102;2022-07-23T08:35:11;12.52;;;8.73;;
27889;SDS011;15238;49.082;9.102;2022-07-23T08:37:11;11.52;;;9.13;;
27889;SDS011;15238;49.082;9.102;2022-07-23T08:39:12;15.45;;;8.23;;
27889;SDS011;15238;49.082;9.102;2022-07-23T08:41:12;9.13;;;8.00;;
27889;SDS011;15238;49.082;9.102;2022-07-23T08:43:16;11.25;;;9.40;;
27889;SDS011;15238;49.082;9.102;2022-07-23T08:45:23;10.52;;;8.68;;
27889;SDS011;15238;49.082;9.102;2022-07-23T08:47:25;12.32;;;8.55;;
27889;SDS011;15238;49.082;9.102;2022-07-23T08:49:25;18.30;;;9.00;;
27889;SDS011;15238;49.082;9.102;2022-07-23T08:51:26;12.23;;;9.43;;
27889;SDS011;15238;49.082;9.102;2022-07-23T08:53:28;11.75;;;8.32;;
27889;SDS011;15238;49.082;9.102;2022-07-23T08:55:30;12.45;;;9.10;;
27889;SDS011;15238;49.082;9.102;2022-07-23T08:57:30;11.27;;;8.27;;
27889;SDS011;15238;49.082;9.102;2022-07-23T08:59:31;10.90;;;8.23;;
27889;SDS011;15238;49.082;9.102;2022-07-23T09:01:32;12.75;;;9.18;;
27889;SDS011;15238;49.082;9.102;2022-07-23T09:03:34;12.02;;;9.32;;
27889;SDS011;15238;49.082;9.102;2022-07-23T09:05:36;12.38;;;9.13;;
27889;SDS011;15238;49.082;9.102;2022-07-23T09:07:37;11.15;;;8.52;;
27889;SDS011;15238;49.082;9.102;2022-07-23T09:10:08;12.40;;;9.73;;
27889;SDS011;15238;49.082;9.102;2022-07-23T09:12:10;13.52;;;8.40;;
27889;SDS011;15238;49.082;9.102;2022-07-23T09:14:11;12.30;;;8.27;;
27889;SDS011;15238;49.082;9.102;2022-07-23T09:18:27;12.55;;;8.95;;
27889;SDS011;15238;49.082;9.102;2022-07-23T09:20:38;12.60;;;8.70;;
27889;SDS011;15238;49.082;9.102;2022-07-23T09:22:38;12.10;;;8.40;;
27889;SDS011;15238;49.082;9.102;2022-07-23T09:27:03;9.35;;;7.35;;
27889;SDS011;15238;49.082;9.102;2022-07-23T09:29:16;8.85;;;7.47;;
27889;SDS011;15238;49.082;9.102;2022-07-23T09:31:18;8.73;;;7.82;;
27889;SDS011;15238;49.082;9.102;2022-07-23T09:33:19;10.48;;;7.65;;
27889;SDS011;15238;49.082;9.102;2022-07-23T09:35:20;7.88;;;7.07;;
27889;SDS011;15238;49.082;9.102;2022-07-23T09:37:21;7.90;;;7.10;;
27889;SDS011;15238;49.082;9.102;2022-07-23T09:39:24;8.23;;;7.25;;
27889;SDS011;15238;49.082;9.102;2022-07-23T09:41:35;7.03;;;6.38;;
27889;SDS011;15238;49.082;9.102;2022-07-23T09:43:40;6.95;;;5.88;;
27889;SDS011;15238;49.082;9.102;2022-07-23T09:45:41;7.75;;;5.90;;
27889;SDS011;15238;49.082;9.102;2022-07-23T09:47:41;7.10;;;6.18;;
27889;SDS011;15238;49.082;9.102;2022-07-23T09:49:57;7.13;;;6.38;;
27889;SDS011;15238;49.082;9.102;2022-07-23T09:52:01;10.13;;;6.87;;
27889;SDS011;15238;49.082;9.102;2022-07-23T09:54:04;9.88;;;6.30;;
27889;SDS011;15238;49.082;9.102;2022-07-23T09:56:04;9.63;;;6.20;;
27889;SDS011;15238;49.082;9.102;2022-07-23T09:58:07;5.90;;;5.30;;
27889;SDS011;15238;49.082;9.102;2022-07-23T10:00:13;7.88;;;5.75;;
27889;SDS011;15238;49.082;9.102;2022-07-23T10:02:14;7.78;;;5.50;;
27889;SDS011;15238;49.082;9.102;2022-07-23T10:04:15;8.40;;;5.60;;
27889;SDS011;15238;49.082;9.102;2022-07-23T10:06:16;5.78;;;5.13;;
27889;SDS011;15238;49.082;9.102;2022-07-23T10:08:17;6.75;;;5.15;;
27889;SDS011;15238;49.082;9.102;2022-07-23T10:10:19;5.20;;;4.70;;
27889;SDS011;15238;49.082;9.102;2022-07-23T10:12:22;5.40;;;4.90;;
27889;SDS011;15238;49.082;9.102;2022-07-23T10:14:36;10.10;;;5.28;;
27889;SDS011;15238;49.082;9.102;2022-07-23T10:16:41;4.85;;;4.32;;
27889;SDS011;15238;49.082;9.102;2022-07-23T10:18:42;5.22;;;4.72;;
27889;SDS011;15238;49.082;9.102;2022-07-23T10:20:42;7.82;;;5.28;;
27889;SDS011;15238;49.082;9.102;2022-07-23T10:22:48;6.35;;;4.80;;
27889;SDS011;15238;49.082;9.102;2022-07-23T10:25:36;7.32;;;5.10;;
27889;SDS011;15238;49.082;9.102;2022-07-23T10:30:42;7.45;;;4.68;;
27889;SDS011;15238;49.082;9.102;2022-07-23T10:33:11;7.03;;;5.53;;
27889;SDS011;15238;49.082;9.102;2022-07-23T10:35:24;7.75;;;5.30;;
27889;SDS011;15238;49.082;9.102;2022-07-23T10:39:33;10.30;;;6.15;;
27889;SDS011;15238;49.082;9.102;2022-07-23T10:41:35;7.55;;;5.60;;
27889;SDS011;15238;49.082;9.102;2022-07-23T10:43:38;6.65;;;5.65;;
27889;SDS011;15238;49.082;9.102;2022-07-23T10:45:39;7.03;;;5.95;;
27889;SDS011;15238;49.082;9.102;2022-07-23T10:47:40;7.07;;;5.32;;
27889;SDS011;15238;49.082;9.102;2022-07-23T10:49:41;5.90;;;5.30;;
27889;SDS011;15238;49.082;9.102;2022-07-23T10:52:11;6.13;;;5.53;;
27889;SDS011;15238;49.082;9.102;2022-07-23T10:54:21;6.18;;;5.53;;
27889;SDS011;15238;49.082;9.102;2022-07-23T10:58:51;6.10;;;5.50;;
27889;SDS011;15238;49.082;9.102;2022-07-23T11:00:53;8.35;;;5.47;;
27889;SDS011;15238;49.082;9.102;2022-07-23T11:02:54;6.43;;;5.45;;
27889;SDS011;15238;49.082;9.102;2022-07-23T11:05:00;9.65;;;5.55;;
27889;SDS011;15238;49.082;9.102;2022-07-23T11:09:23;6.40;;;5.75;;
27889;SDS011;15238;49.082;9.102;2022-07-23T11:11:25;6.22;;;5.45;;
27889;SDS011;15238;49.082;9.102;2022-07-23T11:13:28;5.90;;;4.90;;
27889;SDS011;15238;49.082;9.102;2022-07-23T11:15:29;5.70;;;5.10;;
27889;SDS011;15238;49.082;9.102;2022-07-23T11:17:30;6.97;;;5.18;;
27889;SDS011;15238;49.082;9.102;2022-07-23T11:20:13;6.05;;;5.45;;
27889;SDS011;15238;49.082;9.102;2022-07-23T11:22:33;6.60;;;5.45;;
27889;SDS011;15238;49.082;9.102;2022-07-23T11:24:54;5.45;;;4.95;;
27889;SDS011;15238;49.082;9.102;2022-07-23T11:26:57;5.72;;;5.10;;
27889;SDS011;15238;49.082;9.102;2022-07-23T11:31:36;8.35;;;5.25;;
27889;SDS011;15238;49.082;9.102;2022-07-23T11:33:37;5.55;;;5.05;;
27889;SDS011;15238;49.082;9.102;2022-07-23T11:35:38;7.45;;;5.40;;
27889;SDS011;15238;49.082;9.102;2022-07-23T11:37:40;8.25;;;5.68;;
27889;SDS011;15238;49.082;9.102;2022-07-23T11:39:41;7.85;;;5.70;;
27889;SDS011;15238;49.082;9.102;2022-07-23T11:41:46;8.73;;;5.95;;
27889;SDS011;15238;49.082;9.102;2022-07-23T11:43:46;6.82;;;6.00;;
27889;SDS011;15238;49.082;9.102;2022-07-23T11:45:49;8.18;;;5.75;;
27889;SDS011;15238;49.082;9.102;2022-07-23T11:47:52;7.05;;;5.90;;
27889;SDS011;15238;49.082;9.102;2022-07-23T11:49:56;5.43;;;4.68;;
27889;SDS011;15238;49.082;9.102;2022-07-23T11:52:09;8.02;;;4.47;;
27889;SDS011;15238;49.082;9.102;2022-07-23T11:54:12;6.88;;;4.45;;
27889;SDS011;15238;49.082;9.102;2022-07-23T11:56:12;5.22;;;4.75;;
27889;SDS011;15238;49.082;9.102;2022-07-23T11:58:13;6.10;;;5.47;;
27889;SDS011;15238;49.082;9.102;2022-07-23T12:00:15;6.25;;;5.65;;
27889;SDS011;15238;49.082;9.102;2022-07-23T12:02:17;6.63;;;5.65;;
27889;SDS011;15238;49.082;9.102;2022-07-23T12:04:19;7.00;;;5.68;;
27889;SDS011;15238;49.082;9.102;2022-07-23T12:06:19;6.88;;;5.22;;
27889;SDS011;15238;49.082;9.102;2022-07-23T12:08:20;7.95;;;5.18;;
27889;SDS011;15238;49.082;9.102;2022-07-23T12:12:22;5.13;;;4.60;;
27889;SDS011;15238;49.082;9.102;2022-07-23T12:14:23;5.50;;;4.85;;
27889;SDS011;15238;49.082;9.102;2022-07-23T12:16:24;5.20;;;4.70;;
27889;SDS011;15238;49.082;9.102;2022-07-23T12:18:25;7.75;;;4.57;;
27889;SDS011;15238;49.082;9.102;2022-07-23T12:20:28;5.97;;;4.85;;
27889;SDS011;15238;49.082;9.102;2022-07-23T12:22:36;4.90;;;4.50;;
27889;SDS011;15238;49.082;9.102;2022-07-23T12:27:07;8.88;;;4.68;;
27889;SDS011;15238;49.082;9.102;2022-07-23T12:29:09;5.80;;;5.07;;
27889;SDS011;15238;49.082;9.102;2022-07-23T12:31:10;8.48;;;5.30;;
27889;SDS011;15238;49.082;9.102;2022-07-23T12:33:13;6.05;;;5.30;;